createdAt,value
2022-10-06T00:11:46.000Z,498.4
2022-10-06T00:41:57.000Z,581.6
2022-10-06T01:12:08.000Z,701.6
2022-10-06T01:42:18.000Z,900.8
2022-10-06T02:12:29.000Z,1024.8
2022-10-06T02:42:41.000Z,1202.4
2022-10-06T03:12:56.000Z,1197.6
2022-10-06T03:43:13.000Z,1229.6
2022-10-06T04:13:28.000Z,1303.2
2022-10-06T04:43:45.000Z,1290.4
2022-10-06T05:14:00.000Z,1328.8
2022-10-06T05:44:14.000Z,1343.2
2022-10-06T06:44:44.000Z,1336.8
2022-10-06T07:14:59.000Z,1360.8
2022-10-06T07:45:15.000Z,1410.4
2022-10-06T08:15:36.000Z,462.4
2022-10-06T08:45:50.000Z,451.2
2022-10-06T09:16:04.000Z,470.4
2022-10-06T09:46:19.000Z,439.2
2022-10-06T10:16:30.000Z,352
2022-10-06T10:46:47.000Z,376
2022-10-06T11:17:02.000Z,368.8
2022-10-06T11:47:16.000Z,404.8
2022-10-06T12:17:27.000Z,412
2022-10-06T12:47:42.000Z,434.4
2022-10-06T13:48:02.000Z,1064.8
2022-10-06T14:18:14.000Z,1192
2022-10-06T14:48:26.000Z,1302.4
2022-10-06T15:18:37.000Z,1424
2022-10-06T15:48:49.000Z,1553.6
2022-10-06T16:19:00.000Z,1616.8
2022-10-06T16:49:09.000Z,916
2022-10-06T17:19:19.000Z,1121.6
2022-10-06T17:49:32.000Z,1207.2
2022-10-06T18:19:44.000Z,1372
2022-10-06T18:50:05.000Z,1541.6
2022-10-06T19:20:15.000Z,1708.8
2022-10-06T19:50:29.000Z,1910.4
2022-10-06T20:20:41.000Z,2052.8
2022-10-06T20:50:53.000Z,2212.8
2022-10-06T21:21:03.000Z,2364
2022-10-06T21:51:14.000Z,1742.4
2022-10-06T22:21:25.000Z,1821.6
2022-10-06T22:51:37.000Z,1911.2
2022-10-06T23:21:49.000Z,1975.2
2022-10-06T23:51:59.000Z,2068
